Time;durP1;ratioP1;P1;durP2;ratioP2;P2;SDS_P1;SDS_P2;PMS_P1;PMS_P2;Temp;Humidity;BMP_temperature;BMP_pressure;BME280_temperature;BME280_humidity;BME280_pressure;Samples;Min_cycle;Max_cycle;Signal;HPM_P1;HPM_P2
2022/05/22 00:01:56;;;;;;;0.10;0.10;;;;;;;;;;5068472;28;20039;-76
2022/05/22 00:04:22;;;;;;;0.30;0.30;;;;;;;;;;5066115;28;20511;-77
2022/05/22 00:06:48;;;;;;;0.77;0.47;;;;;;;;;;5064899;28;20047;-76
2022/05/22 00:09:14;;;;;;;1.15;0.95;;;;;;;;;;5067793;28;20059;-77
2022/05/22 00:11:40;;;;;;;1.80;0.68;;;;;;;;;;5071290;28;20839;-77
2022/05/22 00:14:06;;;;;;;2.80;1.38;;;;;;;;;;5061600;28;20047;-77
2022/05/22 00:16:41;;;;;;;0.17;0.17;;;;;;;;;;5069468;28;20414;-77
2022/05/22 00:19:09;;;;;;;0.90;0.75;;;;;;;;;;5061207;28;20036;-77
2022/05/22 00:21:35;;;;;;;0.60;0.47;;;;;;;;;;5064342;28;20039;-77
2022/05/22 00:24:01;;;;;;;0.30;0.30;;;;;;;;;;5069963;28;20025;-77
2022/05/22 00:26:27;;;;;;;0.17;0.15;;;;;;;;;;5065579;28;20091;-76
2022/05/22 00:28:53;;;;;;;0.10;0.10;;;;;;;;;;5060532;28;20029;-76
2022/05/22 00:31:19;;;;;;;0.55;0.38;;;;;;;;;;5067321;28;20023;-77
2022/05/22 00:33:45;;;;;;;1.58;0.77;;;;;;;;;;5070325;28;20035;-77
2022/05/22 00:36:11;;;;;;;0.28;0.28;;;;;;;;;;5066078;28;20032;-77
2022/05/22 00:38:37;;;;;;;0.25;0.20;;;;;;;;;;5067327;28;20062;-77
2022/05/22 00:41:03;;;;;;;0.20;0.20;;;;;;;;;;5068262;28;20086;-77
2022/05/22 00:43:37;;;;;;;0.43;0.30;;;;;;;;;;5065136;28;20032;-77
2022/05/22 00:46:04;;;;;;;0.65;0.63;;;;;;;;;;5065669;28;20036;-77
2022/05/22 00:48:30;;;;;;;0.10;0.10;;;;;;;;;;5066114;28;20028;-77
2022/05/22 00:51:22;;;;;;;0.20;0.20;;;;;;;;;;5060721;28;20036;-77
2022/05/22 00:53:54;;;;;;;0.45;0.15;;;;;;;;;;5063349;28;20033;-76
2022/05/22 00:56:23;;;;;;;0.88;0.60;;;;;;;;;;5062478;28;20028;-77
2022/05/22 00:58:51;;;;;;;0.50;0.40;;;;;;;;;;5061917;28;20028;-77
2022/05/22 01:01:17;;;;;;;0.63;0.63;;;;;;;;;;5068163;28;20032;-77
2022/05/22 01:03:43;;;;;;;1.88;1.75;;;;;;;;;;5065799;28;20073;-77
2022/05/22 01:06:10;;;;;;;0.10;0.10;;;;;;;;;;5061073;28;20514;-77
2022/05/22 01:08:37;;;;;;;0.30;0.30;;;;;;;;;;5053746;28;20037;-77
2022/05/22 01:11:13;;;;;;;0.82;0.82;;;;;;;;;;5068041;28;20068;-76
2022/05/22 01:13:52;;;;;;;0.35;0.30;;;;;;;;;;5065450;28;20573;-76
2022/05/22 01:16:19;;;;;;;0.08;0.08;;;;;;;;;;5066432;28;20029;-77
2022/05/22 01:18:46;;;;;;;2.13;0.30;;;;;;;;;;5061688;28;20051;-77
2022/05/22 01:21:14;;;;;;;0.30;0.30;;;;;;;;;;5067195;28;20039;-76
2022/05/22 01:23:40;;;;;;;5.07;0.80;;;;;;;;;;5060582;28;20050;-77
2022/05/22 01:26:06;;;;;;;0.63;0.47;;;;;;;;;;5057508;28;20037;-77
2022/05/22 01:28:32;;;;;;;7.47;0.30;;;;;;;;;;5063159;28;20021;-77
2022/05/22 01:31:00;;;;;;;0.35;0.30;;;;;;;;;;5064477;28;20048;-77
2022/05/22 01:33:26;;;;;;;1.17;0.77;;;;;;;;;;5065375;28;20029;-77
2022/05/22 01:35:52;;;;;;;0.52;0.35;;;;;;;;;;5064588;28;20043;-77
2022/05/22 01:38:18;;;;;;;0.10;0.10;;;;;;;;;;5059811;28;20426;-77
2022/05/22 01:40:44;;;;;;;1.98;0.50;;;;;;;;;;5059939;28;20040;-77
2022/05/22 01:43:09;;;;;;;0.17;0.17;;;;;;;;;;5067538;28;20031;-76
2022/05/22 01:45:35;;;;;;;0.30;0.30;;;;;;;;;;5061688;28;20036;-78
2022/05/22 01:48:01;;;;;;;0.20;0.20;;;;;;;;;;5051716;28;20059;-77
2022/05/22 01:50:27;;;;;;;0.10;0.10;;;;;;;;;;5059951;28;20036;-77
2022/05/22 01:52:53;;;;;;;1.10;0.57;;;;;;;;;;5063302;28;20025;-76
2022/05/22 01:55:20;;;;;;;0.20;0.20;;;;;;;;;;5058300;28;20025;-76
2022/05/22 01:57:46;;;;;;;8.38;0.93;;;;;;;;;;5059848;28;20167;-77
2022/05/22 02:00:13;;;;;;;0.25;0.25;;;;;;;;;;5060932;28;20029;-77
2022/05/22 02:02:39;;;;;;;0.40;0.40;;;;;;;;;;5056145;28;20078;-77
2022/05/22 02:05:05;;;;;;;0.47;0.47;;;;;;;;;;5060012;28;20112;-77
2022/05/22 02:10:16;;;;;;;0.17;0.17;;;;;;;;;;5065456;28;20074;-77
2022/05/22 02:12:42;;;;;;;0.57;0.57;;;;;;;;;;5054513;28;20063;-77
2022/05/22 02:15:08;;;;;;;0.20;0.20;;;;;;;;;;5051618;28;20424;-77
2022/05/22 02:17:34;;;;;;;2.80;1.20;;;;;;;;;;5059023;28;20041;-77
2022/05/22 02:20:00;;;;;;;0.98;0.68;;;;;;;;;;5063931;28;20060;-77
2022/05/22 02:22:26;;;;;;;0.50;0.38;;;;;;;;;;5059029;28;20035;-77
2022/05/22 02:24:53;;;;;;;0.50;0.50;;;;;;;;;;5063342;28;20028;-76
2022/05/22 02:27:19;;;;;;;0.75;0.75;;;;;;;;;;5063621;28;20021;-77
2022/05/22 02:29:45;;;;;;;0.30;0.30;;;;;;;;;;5060654;28;20790;-77
2022/05/22 02:32:32;;;;;;;0.10;0.10;;;;;;;;;;5053542;28;20029;-77
2022/05/22 02:34:58;;;;;;;0.13;0.13;;;;;;;;;;5065880;28;20135;-75
2022/05/22 02:37:24;;;;;;;0.32;0.17;;;;;;;;;;5063982;28;20111;-76
2022/05/22 02:39:50;;;;;;;2.13;0.63;;;;;;;;;;5055743;28;20400;-76
2022/05/22 02:42:16;;;;;;;0.80;0.80;;;;;;;;;;5059205;28;20029;-76
2022/05/22 02:44:42;;;;;;;0.70;0.70;;;;;;;;;;5057948;28;20029;-76
2022/05/22 02:47:08;;;;;;;0.17;0.17;;;;;;;;;;5063756;28;20063;-76
2022/05/22 02:49:33;;;;;;;0.20;0.20;;;;;;;;;;5064064;28;20077;-76
2022/05/22 02:52:03;;;;;;;4.22;0.47;;;;;;;;;;5061583;28;20021;-76
2022/05/22 02:54:28;;;;;;;0.20;0.20;;;;;;;;;;5059697;28;20052;-76
2022/05/22 02:56:54;;;;;;;0.17;0.17;;;;;;;;;;5056040;28;20422;-76
2022/05/22 02:59:20;;;;;;;0.32;0.20;;;;;;;;;;5061870;28;20476;-76
2022/05/22 03:01:46;;;;;;;0.85;0.77;;;;;;;;;;5058802;28;20094;-76
2022/05/22 03:04:12;;;;;;;0.50;0.50;;;;;;;;;;5067669;28;20033;-76
2022/05/22 03:06:38;;;;;;;0.38;0.38;;;;;;;;;;5066018;28;20036;-76
2022/05/22 03:09:15;;;;;;;0.43;0.43;;;;;;;;;;5068618;28;20036;-76
2022/05/22 03:11:41;;;;;;;0.47;0.47;;;;;;;;;;5067340;28;20036;-76
2022/05/22 03:14:07;;;;;;;0.57;0.43;;;;;;;;;;5064499;28;20101;-77
2022/05/22 03:16:33;;;;;;;0.75;0.32;;;;;;;;;;5068783;28;20123;-76
2022/05/22 03:18:59;;;;;;;0.00;0.00;;;;;;;;;;5063838;28;20415;-76
2022/05/22 03:21:28;;;;;;;0.73;0.30;;;;;;;;;;5055839;28;20029;-76
2022/05/22 03:23:54;;;;;;;0.20;0.20;;;;;;;;;;5063969;28;20033;-76
2022/05/22 03:26:20;;;;;;;5.78;1.65;;;;;;;;;;5065173;28;20043;-76
2022/05/22 03:28:46;;;;;;;0.73;0.73;;;;;;;;;;5068587;28;20421;-77
2022/05/22 03:31:12;;;;;;;0.10;0.10;;;;;;;;;;5070202;28;20073;-76
2022/05/22 03:33:38;;;;;;;0.80;0.60;;;;;;;;;;5064703;28;20025;-76
2022/05/22 03:36:05;;;;;;;1.45;0.20;;;;;;;;;;5062444;28;20098;-76
2022/05/22 03:38:31;;;;;;;0.05;0.05;;;;;;;;;;5066334;28;20551;-76
2022/05/22 03:40:57;;;;;;;0.20;0.20;;;;;;;;;;5066853;28;20032;-75
2022/05/22 03:43:23;;;;;;;2.20;1.08;;;;;;;;;;5064445;28;20038;-76
2022/05/22 03:45:49;;;;;;;1.23;0.25;;;;;;;;;;5060872;28;20059;-76
2022/05/22 03:48:15;;;;;;;0.50;0.50;;;;;;;;;;5059651;28;20020;-75
2022/05/22 03:50:41;;;;;;;3.63;0.80;;;;;;;;;;5066290;28;20023;-76
2022/05/22 03:53:07;;;;;;;0.28;0.28;;;;;;;;;;5069127;28;20464;-75
2022/05/22 03:55:33;;;;;;;1.70;0.30;;;;;;;;;;5067761;28;20502;-76
2022/05/22 03:57:59;;;;;;;0.90;0.30;;;;;;;;;;5056979;28;20385;-75
2022/05/22 04:00:25;;;;;;;0.60;0.45;;;;;;;;;;5064983;28;20052;-76
2022/05/22 04:02:51;;;;;;;0.40;0.40;;;;;;;;;;5067394;28;20066;-76
2022/05/22 04:05:17;;;;;;;1.08;0.35;;;;;;;;;;5065697;28;20020;-76
2022/05/22 04:07:45;;;;;;;0.43;0.43;;;;;;;;;;5065422;28;20254;-76
2022/05/22 04:10:12;;;;;;;0.17;0.17;;;;;;;;;;5076028;28;20052;-76
2022/05/22 04:12:38;;;;;;;0.63;0.32;;;;;;;;;;5066469;28;20021;-76
2022/05/22 04:15:05;;;;;;;0.52;0.50;;;;;;;;;;5062539;28;20059;-75
2022/05/22 04:17:31;;;;;;;0.73;0.22;;;;;;;;;;5067166;28;20110;-76
2022/05/22 04:19:57;;;;;;;1.10;0.55;;;;;;;;;;5056464;28;20463;-76
2022/05/22 04:22:23;;;;;;;0.45;0.45;;;;;;;;;;5068033;28;21288;-77
2022/05/22 04:27:37;;;;;;;8.68;0.77;;;;;;;;;;5066541;28;20071;-76
2022/05/22 04:30:03;;;;;;;0.38;0.38;;;;;;;;;;5066792;28;20033;-77
2022/05/22 04:32:29;;;;;;;0.20;0.20;;;;;;;;;;5058231;28;20036;-77
2022/05/22 04:34:55;;;;;;;0.15;0.15;;;;;;;;;;5066114;28;20036;-76
2022/05/22 04:37:21;;;;;;;0.30;0.28;;;;;;;;;;5065790;28;20036;-76
2022/05/22 04:39:47;;;;;;;2.17;0.63;;;;;;;;;;5066592;28;20059;-75
2022/05/22 04:42:12;;;;;;;1.00;0.40;;;;;;;;;;5062151;28;20544;-76
2022/05/22 04:44:38;;;;;;;0.22;0.22;;;;;;;;;;5062859;28;20032;-76
2022/05/22 04:47:04;;;;;;;0.30;0.25;;;;;;;;;;5063984;28;20395;-77
2022/05/22 04:49:30;;;;;;;3.53;0.30;;;;;;;;;;5067740;28;20021;-75
2022/05/22 04:51:59;;;;;;;1.20;0.85;;;;;;;;;;5066276;28;20016;-76
2022/05/22 04:54:25;;;;;;;0.60;0.60;;;;;;;;;;5058751;28;20025;-77
2022/05/22 04:56:53;;;;;;;0.98;0.30;;;;;;;;;;5061815;28;20040;-75
2022/05/22 04:59:19;;;;;;;0.10;0.10;;;;;;;;;;5069112;28;20070;-76
2022/05/22 05:01:45;;;;;;;0.63;0.63;;;;;;;;;;5061534;28;20025;-76
2022/05/22 05:04:13;;;;;;;0.32;0.32;;;;;;;;;;5068472;28;20028;-76
2022/05/22 05:06:39;;;;;;;0.30;0.30;;;;;;;;;;5062065;28;20103;-76
2022/05/22 05:09:05;;;;;;;0.50;0.50;;;;;;;;;;5055342;28;20422;-76
2022/05/22 05:11:31;;;;;;;6.05;1.00;;;;;;;;;;5063878;28;20039;-76
2022/05/22 05:13:57;;;;;;;0.05;0.05;;;;;;;;;;5068160;28;20028;-76
2022/05/22 05:16:22;;;;;;;1.00;0.85;;;;;;;;;;5058513;28;20033;-76
2022/05/22 05:18:48;;;;;;;0.50;0.50;;;;;;;;;;5061478;28;20044;-77
2022/05/22 05:21:15;;;;;;;7.20;0.85;;;;;;;;;;5063356;28;20467;-76
2022/05/22 05:23:41;;;;;;;1.15;0.60;;;;;;;;;;5066672;28;20071;-76
2022/05/22 05:26:08;;;;;;;0.60;0.55;;;;;;;;;;5056937;28;20480;-76
2022/05/22 05:28:34;;;;;;;4.50;0.60;;;;;;;;;;5064255;28;20082;-76
2022/05/22 05:31:00;;;;;;;0.82;0.60;;;;;;;;;;5065685;28;20028;-77
2022/05/22 05:33:26;;;;;;;9.25;0.68;;;;;;;;;;5057933;28;20024;-76
2022/05/22 05:35:52;;;;;;;0.88;0.47;;;;;;;;;;5062450;28;20028;-76
2022/05/22 05:38:17;;;;;;;1.50;0.60;;;;;;;;;;5062890;28;20115;-75
2022/05/22 05:40:44;;;;;;;5.05;0.80;;;;;;;;;;5055277;28;20188;-76
2022/05/22 05:43:10;;;;;;;0.13;0.13;;;;;;;;;;5064625;28;20031;-76
2022/05/22 05:45:36;;;;;;;0.30;0.30;;;;;;;;;;5064119;28;20021;-76
2022/05/22 05:48:02;;;;;;;0.55;0.52;;;;;;;;;;5060403;28;20024;-76
2022/05/22 05:50:28;;;;;;;1.00;0.43;;;;;;;;;;5065162;28;20138;-76
2022/05/22 05:52:55;;;;;;;0.30;0.30;;;;;;;;;;5063709;28;20028;-76
2022/05/22 05:55:21;;;;;;;1.13;1.00;;;;;;;;;;5064052;28;20525;-76
2022/05/22 05:57:47;;;;;;;0.20;0.20;;;;;;;;;;5060469;28;20028;-76
2022/05/22 06:00:15;;;;;;;0.93;0.63;;;;;;;;;;5059757;28;20094;-76
2022/05/22 06:02:41;;;;;;;0.50;0.50;;;;;;;;;;5058480;28;20029;-77
2022/05/22 06:05:08;;;;;;;1.70;0.85;;;;;;;;;;5061746;28;20074;-76
2022/05/22 06:07:33;;;;;;;0.32;0.30;;;;;;;;;;5060662;28;20028;-76
2022/05/22 06:10:00;;;;;;;0.20;0.20;;;;;;;;;;5065785;28;20430;-76
2022/05/22 06:12:26;;;;;;;0.85;0.38;;;;;;;;;;5062790;28;20238;-76
2022/05/22 06:14:52;;;;;;;0.20;0.20;;;;;;;;;;5066964;28;20052;-77
2022/05/22 06:17:18;;;;;;;6.47;1.40;;;;;;;;;;5060113;28;20048;-76
2022/05/22 06:19:56;;;;;;;1.27;0.70;;;;;;;;;;5062150;28;20491;-76
2022/05/22 06:22:23;;;;;;;2.53;0.35;;;;;;;;;;5063223;28;20137;-77
2022/05/22 06:24:49;;;;;;;0.98;0.63;;;;;;;;;;5060418;28;20048;-76
2022/05/22 06:27:15;;;;;;;0.70;0.70;;;;;;;;;;5065652;28;20036;-77
2022/05/22 06:29:42;;;;;;;0.20;0.20;;;;;;;;;;5061539;28;20060;-76
2022/05/22 06:32:08;;;;;;;0.55;0.40;;;;;;;;;;5061651;28;20504;-76
2022/05/22 06:34:35;;;;;;;3.88;1.52;;;;;;;;;;5062006;28;20039;-77
2022/05/22 06:37:02;;;;;;;0.65;0.57;;;;;;;;;;5066690;28;20097;-76
2022/05/22 06:42:14;;;;;;;2.67;0.40;;;;;;;;;;5066838;28;20090;-75
2022/05/22 06:44:40;;;;;;;0.65;0.55;;;;;;;;;;5067690;28;20028;-79
2022/05/22 06:47:06;;;;;;;0.65;0.63;;;;;;;;;;5062753;28;20040;-76
2022/05/22 06:49:32;;;;;;;1.58;0.63;;;;;;;;;;5062778;28;20052;-76
2022/05/22 06:51:58;;;;;;;0.57;0.57;;;;;;;;;;5062266;28;20187;-79
2022/05/22 06:54:24;;;;;;;2.28;0.40;;;;;;;;;;5072146;28;20032;-79
2022/05/22 06:56:50;;;;;;;1.52;0.45;;;;;;;;;;5069484;28;20078;-78
2022/05/22 06:59:16;;;;;;;0.88;0.68;;;;;;;;;;5066641;28;20520;-76
2022/05/22 07:01:42;;;;;;;2.75;0.93;;;;;;;;;;5065532;28;20123;-76
2022/05/22 07:04:08;;;;;;;0.47;0.47;;;;;;;;;;5065528;28;20133;-79
2022/05/22 07:06:34;;;;;;;4.20;0.68;;;;;;;;;;5062879;28;20099;-79
2022/05/22 07:08:59;;;;;;;0.20;0.20;;;;;;;;;;5065967;28;20059;-76
2022/05/22 07:11:40;;;;;;;0.30;0.30;;;;;;;;;;5059880;28;20024;-76
2022/05/22 07:14:08;;;;;;;2.28;0.45;;;;;;;;;;5057391;28;20554;-76
2022/05/22 07:16:34;;;;;;;0.75;0.50;;;;;;;;;;5061682;28;20077;-85
2022/05/22 07:19:00;;;;;;;0.55;0.50;;;;;;;;;;5056752;28;20090;-82
2022/05/22 07:21:27;;;;;;;0.20;0.20;;;;;;;;;;5066919;28;20024;-82
2022/05/22 07:23:53;;;;;;;1.27;0.52;;;;;;;;;;5062973;28;20040;-81
2022/05/22 07:26:21;;;;;;;4.10;1.63;;;;;;;;;;5065256;28;20067;-81
2022/05/22 07:28:47;;;;;;;2.00;0.65;;;;;;;;;;5067160;28;20556;-78
2022/05/22 07:31:20;;;;;;;0.63;0.63;;;;;;;;;;5056725;28;20051;-79
2022/05/22 07:33:46;;;;;;;1.95;0.47;;;;;;;;;;5061987;28;20028;-78
2022/05/22 07:36:12;;;;;;;0.85;0.43;;;;;;;;;;5056097;28;20037;-77
2022/05/22 07:38:38;;;;;;;5.13;0.68;;;;;;;;;;5065709;28;20032;-78
2022/05/22 07:41:04;;;;;;;0.70;0.70;;;;;;;;;;5059455;28;20479;-78
2022/05/22 07:43:30;;;;;;;0.95;0.85;;;;;;;;;;5067179;28;20071;-78
2022/05/22 07:45:56;;;;;;;4.00;0.70;;;;;;;;;;5063936;28;20032;-77
2022/05/22 07:48:21;;;;;;;0.20;0.20;;;;;;;;;;5057448;28;20020;-78
2022/05/22 07:50:53;;;;;;;0.93;0.43;;;;;;;;;;5055828;28;20362;-76
2022/05/22 07:53:19;;;;;;;0.30;0.30;;;;;;;;;;5057062;28;20029;-77
2022/05/22 07:55:45;;;;;;;0.80;0.55;;;;;;;;;;5054005;28;20097;-76
2022/05/22 07:58:11;;;;;;;0.20;0.20;;;;;;;;;;5063625;28;20192;-77
2022/05/22 08:00:37;;;;;;;0.40;0.40;;;;;;;;;;5063909;28;20111;-77
2022/05/22 08:03:09;;;;;;;0.68;0.40;;;;;;;;;;5066760;28;20483;-77
2022/05/22 08:05:35;;;;;;;0.95;0.30;;;;;;;;;;5065282;28;20475;-76
2022/05/22 08:08:01;;;;;;;0.40;0.40;;;;;;;;;;5063417;28;20078;-80
2022/05/22 08:10:27;;;;;;;1.55;0.85;;;;;;;;;;5066895;28;20048;-82
2022/05/22 08:12:53;;;;;;;3.75;1.33;;;;;;;;;;5067515;28;20036;-81
2022/05/22 08:15:20;;;;;;;0.35;0.35;;;;;;;;;;5061107;28;20116;-76
2022/05/22 08:17:46;;;;;;;0.40;0.40;;;;;;;;;;5058311;28;20053;-76
2022/05/22 08:20:14;;;;;;;3.22;1.30;;;;;;;;;;5063759;28;20119;-76
2022/05/22 08:22:46;;;;;;;0.35;0.35;;;;;;;;;;5063623;28;20029;-78
2022/05/22 08:25:16;;;;;;;0.57;0.43;;;;;;;;;;5061802;28;20510;-77
2022/05/22 08:27:42;;;;;;;0.30;0.30;;;;;;;;;;5062603;28;20123;-77
2022/05/22 08:30:09;;;;;;;0.63;0.55;;;;;;;;;;5063147;28;20028;-74
2022/05/22 08:32:42;;;;;;;0.32;0.32;;;;;;;;;;5065188;28;20098;-76
2022/05/22 08:35:09;;;;;;;0.52;0.52;;;;;;;;;;5057153;28;20024;-76
2022/05/22 08:37:35;;;;;;;0.13;0.13;;;;;;;;;;5064961;28;20033;-75
2022/05/22 08:40:01;;;;;;;1.38;0.47;;;;;;;;;;5052326;28;20133;-74
2022/05/22 08:42:47;;;;;;;0.52;0.40;;;;;;;;;;5066029;28;20040;-75
2022/05/22 08:45:18;;;;;;;0.50;0.50;;;;;;;;;;5065896;28;20032;-75
2022/05/22 08:48:13;;;;;;;0.50;0.50;;;;;;;;;;5069279;28;20410;-75
2022/05/22 08:50:40;;;;;;;0.60;0.40;;;;;;;;;;5052216;28;20478;-75
2022/05/22 08:53:09;;;;;;;1.42;1.02;;;;;;;;;;5067840;28;20028;-75
2022/05/22 09:01:15;;;;;;;0.52;0.52;;;;;;;;;;5061832;28;20514;-76
2022/05/22 09:03:48;;;;;;;0.52;0.50;;;;;;;;;;5050714;28;20373;-77
2022/05/22 09:06:15;;;;;;;1.88;0.90;;;;;;;;;;5056848;28;20028;-78
2022/05/22 09:08:48;;;;;;;0.43;0.43;;;;;;;;;;5062761;28;20032;-78
2022/05/22 09:11:23;;;;;;;3.10;0.95;;;;;;;;;;5065840;28;20119;-79
2022/05/22 09:13:54;;;;;;;0.93;0.88;;;;;;;;;;5061065;28;20099;-79
2022/05/22 09:16:26;;;;;;;0.30;0.30;;;;;;;;;;5062513;28;20027;-79
2022/05/22 09:19:03;;;;;;;0.57;0.57;;;;;;;;;;5061564;28;20052;-79
2022/05/22 09:21:31;;;;;;;1.30;0.40;;;;;;;;;;5060116;28;20169;-79
2022/05/22 09:24:01;;;;;;;0.28;0.28;;;;;;;;;;5063391;28;20032;-79
2022/05/22 09:26:33;;;;;;;0.87;0.47;;;;;;;;;;5061707;28;20036;-79
2022/05/22 09:29:18;;;;;;;0.70;0.70;;;;;;;;;;5060695;28;20412;-77
2022/05/22 09:31:47;;;;;;;0.13;0.13;;;;;;;;;;5056570;28;20040;-80
2022/05/22 09:34:21;;;;;;;1.55;0.77;;;;;;;;;;5063425;28;20032;-79
2022/05/22 09:36:50;;;;;;;0.50;0.30;;;;;;;;;;5063237;28;20028;-78
2022/05/22 09:39:36;;;;;;;0.80;0.65;;;;;;;;;;5059233;28;20029;-86
2022/05/22 09:42:05;;;;;;;2.72;0.60;;;;;;;;;;5061488;28;20131;-80
2022/05/22 09:44:50;;;;;;;1.48;0.52;;;;;;;;;;5062086;28;20384;-79
2022/05/22 09:47:25;;;;;;;0.20;0.20;;;;;;;;;;5067911;28;20033;-80
2022/05/22 09:50:06;;;;;;;0.20;0.20;;;;;;;;;;5057678;28;20384;-80
2022/05/22 09:52:32;;;;;;;;;;;;;;;;;;5062486;28;20017;-79
2022/05/22 09:55:17;;;;;;;0.30;0.30;;;;;;;;;;5060626;28;20295;-80
2022/05/22 09:57:50;;;;;;;0.22;0.20;;;;;;;;;;5064461;28;20104;-78
2022/05/22 10:00:21;;;;;;;3.20;0.50;;;;;;;;;;5051143;28;20031;-80
2022/05/22 10:02:55;;;;;;;0.33;0.20;;;;;;;;;;5061856;28;20647;-80
2022/05/22 10:05:21;;;;;;;0.85;0.43;;;;;;;;;;5064825;28;20028;-79
2022/05/22 10:07:54;;;;;;;0.25;0.25;;;;;;;;;;5065318;28;20027;-79
2022/05/22 10:10:27;;;;;;;0.20;0.20;;;;;;;;;;5063700;28;20467;-81
2022/05/22 10:13:12;;;;;;;0.28;0.28;;;;;;;;;;5058157;28;20024;-79
2022/05/22 10:15:53;;;;;;;0.22;0.22;;;;;;;;;;5058542;28;20029;-81
2022/05/22 10:18:37;;;;;;;3.30;0.98;;;;;;;;;;5057390;28;20093;-78
2022/05/22 10:21:21;;;;;;;0.75;0.73;;;;;;;;;;5054866;28;20116;-80
2022/05/22 10:23:55;;;;;;;0.85;0.38;;;;;;;;;;5055380;28;20041;-79
2022/05/22 10:26:35;;;;;;;3.42;0.47;;;;;;;;;;5054444;28;20043;-77
2022/05/22 10:29:09;;;;;;;0.28;0.20;;;;;;;;;;5061208;28;20024;-79
2022/05/22 10:31:41;;;;;;;0.20;0.20;;;;;;;;;;5056724;28;20040;-79
2022/05/22 10:34:11;;;;;;;0.30;0.30;;;;;;;;;;5063876;28;20128;-77
2022/05/22 10:36:40;;;;;;;0.37;0.27;;;;;;;;;;5056960;28;20115;-78
2022/05/22 10:39:10;;;;;;;0.10;0.10;;;;;;;;;;5058544;28;20348;-77
2022/05/22 10:44:35;;;;;;;0.28;0.25;;;;;;;;;;5056662;28;20040;-81
2022/05/22 10:47:02;;;;;;;0.15;0.15;;;;;;;;;;5054834;28;20494;-85
2022/05/22 10:49:40;;;;;;;0.75;0.40;;;;;;;;;;5049706;28;20174;-81
2022/05/22 10:52:07;;;;;;;0.20;0.20;;;;;;;;;;5058769;28;20025;-80
2022/05/22 10:54:34;;;;;;;1.25;0.60;;;;;;;;;;5057551;28;20040;-81
2022/05/22 10:57:08;;;;;;;1.40;0.20;;;;;;;;;;5049045;28;20081;-84
2022/05/22 10:59:34;;;;;;;0.30;0.28;;;;;;;;;;5052646;28;20033;-82
2022/05/22 11:02:04;;;;;;;0.22;0.22;;;;;;;;;;5055150;28;21906;-84
2022/05/22 11:04:43;;;;;;;1.17;0.30;;;;;;;;;;5051651;28;20036;-83
2022/05/22 11:07:10;;;;;;;3.83;0.43;;;;;;;;;;5056821;28;20257;-81
2022/05/22 11:09:51;;;;;;;1.10;0.68;;;;;;;;;;5055278;28;20021;-80
2022/05/22 11:12:25;;;;;;;0.65;0.40;;;;;;;;;;5055316;28;20013;-79
2022/05/22 11:14:51;;;;;;;0.52;0.30;;;;;;;;;;5055896;28;22000;-80
2022/05/22 11:17:18;;;;;;;0.50;0.50;;;;;;;;;;5053801;28;20037;-79
2022/05/22 11:19:45;;;;;;;0.75;0.30;;;;;;;;;;5054932;28;20111;-78
2022/05/22 11:22:31;;;;;;;0.40;0.40;;;;;;;;;;5056430;28;20021;-79
2022/05/22 11:25:14;;;;;;;0.20;0.20;;;;;;;;;;5057690;28;20206;-79
2022/05/22 11:27:59;;;;;;;0.80;0.43;;;;;;;;;;5060026;28;20029;-80
2022/05/22 11:30:27;;;;;;;0.50;0.47;;;;;;;;;;5058957;28;20039;-80
2022/05/22 11:33:13;;;;;;;0.73;0.30;;;;;;;;;;5060732;28;20103;-79
2022/05/22 11:35:54;;;;;;;0.20;0.20;;;;;;;;;;5057374;28;20024;-78
2022/05/22 11:38:39;;;;;;;0.35;0.30;;;;;;;;;;5055294;28;20510;-79
2022/05/22 11:41:17;;;;;;;2.13;0.70;;;;;;;;;;5055215;28;20921;-77
2022/05/22 11:44:02;;;;;;;0.55;0.55;;;;;;;;;;5057941;28;20082;-76
2022/05/22 11:46:54;;;;;;;1.15;0.43;;;;;;;;;;5056591;28;20495;-78
2022/05/22 11:49:29;;;;;;;0.30;0.30;;;;;;;;;;5058369;28;20059;-76
2022/05/22 11:55:15;;;;;;;1.30;0.40;;;;;;;;;;5054505;28;20032;-76
2022/05/22 11:57:49;;;;;;;1.95;1.05;;;;;;;;;;5059631;28;20065;-78
2022/05/22 12:00:19;;;;;;;0.40;0.40;;;;;;;;;;5056261;28;20164;-78
2022/05/22 12:02:57;;;;;;;0.35;0.30;;;;;;;;;;5056587;28;20031;-75
2022/05/22 12:05:39;;;;;;;0.40;0.28;;;;;;;;;;5057458;28;20036;-76
2022/05/22 12:08:21;;;;;;;1.15;0.70;;;;;;;;;;5058596;28;20028;-75
2022/05/22 12:10:51;;;;;;;0.90;0.60;;;;;;;;;;5057856;28;20036;-80
2022/05/22 12:13:27;;;;;;;0.28;0.28;;;;;;;;;;5061248;28;20051;-81
2022/05/22 12:16:15;;;;;;;1.92;0.40;;;;;;;;;;5056431;28;20039;-79
2022/05/22 12:19:00;;;;;;;0.30;0.30;;;;;;;;;;5057039;28;20131;-78
2022/05/22 12:21:26;;;;;;;0.30;0.30;;;;;;;;;;5057177;28;20044;-85
2022/05/22 12:24:10;;;;;;;1.17;0.63;;;;;;;;;;5058550;28;20033;-80
2022/05/22 12:26:37;;;;;;;0.30;0.30;;;;;;;;;;5059703;28;20076;-78
2022/05/22 12:29:07;;;;;;;1.75;0.65;;;;;;;;;;5055930;28;20121;-76
2022/05/22 12:31:40;;;;;;;0.50;0.40;;;;;;;;;;5058891;28;20119;-77
2022/05/22 12:34:12;;;;;;;0.63;0.35;;;;;;;;;;5056301;28;20040;-81
2022/05/22 12:36:41;;;;;;;5.70;3.13;;;;;;;;;;5055590;28;20032;-78
2022/05/22 12:39:10;;;;;;;1.05;0.70;;;;;;;;;;5058855;28;20028;-77
2022/05/22 12:41:36;;;;;;;0.80;0.73;;;;;;;;;;5059473;28;20037;-78
2022/05/22 12:46:47;;;;;;;2.97;2.03;;;;;;;;;;5055412;28;20044;-80
2022/05/22 12:49:27;;;;;;;39.88;20.63;;;;;;;;;;5059412;28;20025;-79
2022/05/22 12:51:57;;;;;;;25.50;13.50;;;;;;;;;;5064189;28;20475;-80
2022/05/22 12:54:24;;;;;;;13.02;8.20;;;;;;;;;;5065410;28;20075;-80
2022/05/22 12:56:50;;;;;;;158.98;73.47;;;;;;;;;;5066371;28;20028;-79
2022/05/22 12:59:16;;;;;;;30.27;16.02;;;;;;;;;;5051482;28;20329;-79
2022/05/22 13:01:45;;;;;;;106.25;44.50;;;;;;;;;;5055720;28;20056;-79
2022/05/22 13:04:18;;;;;;;308.40;164.25;;;;;;;;;;5053330;28;20040;-83
2022/05/22 13:06:48;;;;;;;491.98;272.23;;;;;;;;;;5055190;28;20035;-79
2022/05/22 13:09:33;;;;;;;10.25;5.10;;;;;;;;;;5054147;28;20125;-78
2022/05/22 13:12:05;;;;;;;6.22;3.53;;;;;;;;;;5067475;28;20021;-79
2022/05/22 13:14:33;;;;;;;1.65;1.35;;;;;;;;;;5049430;28;20024;-78
2022/05/22 13:17:00;;;;;;;2.10;1.50;;;;;;;;;;5054398;28;20119;-78
2022/05/22 13:20:34;;;;;;;1.40;0.85;;;;;;;;;;5050358;28;20028;-79
2022/05/22 13:22:42;;;;;;;0.20;0.20;;;;;;;;;;5050047;28;20040;-79
2022/05/22 13:25:25;;;;;;;19.30;4.60;;;;;;;;;;5056094;28;20112;-78
2022/05/22 13:27:51;;;;;;;2.60;1.73;;;;;;;;;;5057544;28;20056;-78
2022/05/22 13:30:22;;;;;;;0.50;0.50;;;;;;;;;;5049280;28;20025;-78
2022/05/22 13:32:47;;;;;;;;;;;;;;;;;;5053600;28;20044;-78
2022/05/22 13:35:18;;;;;;;1.55;0.65;;;;;;;;;;5061278;28;19916;-77
2022/05/22 13:37:46;;;;;;;3.50;1.17;;;;;;;;;;5053402;28;20042;-78
2022/05/22 13:40:18;;;;;;;0.30;0.30;;;;;;;;;;5052721;28;20419;-78
2022/05/22 13:43:08;;;;;;;0.25;0.25;;;;;;;;;;5056054;28;20403;-78
2022/05/22 13:45:37;;;;;;;0.70;0.60;;;;;;;;;;5055835;28;20491;-77
2022/05/22 13:48:12;;;;;;;1.00;0.45;;;;;;;;;;5061104;28;20059;-79
2022/05/22 13:53:37;;;;;;;0.57;0.57;;;;;;;;;;5052747;28;20074;-80
2022/05/22 13:56:03;;;;;;;0.30;0.30;;;;;;;;;;5050587;28;20040;-79
2022/05/22 13:58:38;;;;;;;0.68;0.68;;;;;;;;;;5061683;28;20035;-79
2022/05/22 14:01:08;;;;;;;0.45;0.43;;;;;;;;;;5050230;28;20061;-78
2022/05/22 14:03:39;;;;;;;0.50;0.50;;;;;;;;;;5052093;28;20032;-78
2022/05/22 14:06:06;;;;;;;0.70;0.65;;;;;;;;;;5055652;28;20043;-78
2022/05/22 14:08:34;;;;;;;0.45;0.45;;;;;;;;;;5052903;28;20036;-79
2022/05/22 14:11:01;;;;;;;1.08;0.70;;;;;;;;;;5057378;28;20017;-78
2022/05/22 14:13:28;;;;;;;0.55;0.40;;;;;;;;;;5059360;28;20044;-79
2022/05/22 14:15:58;;;;;;;3.72;1.50;;;;;;;;;;5052800;28;20077;-80
2022/05/22 14:18:25;;;;;;;1.98;0.90;;;;;;;;;;5060597;28;20078;-80
2022/05/22 14:20:52;;;;;;;1.27;1.08;;;;;;;;;;5053428;28;20078;-77
2022/05/22 14:23:20;;;;;;;0.30;0.30;;;;;;;;;;5059691;28;20024;-77
2022/05/22 14:25:46;;;;;;;0.80;0.77;;;;;;;;;;5045124;28;20078;-77
2022/05/22 14:28:13;;;;;;;0.68;0.65;;;;;;;;;;5050638;28;20059;-78
2022/05/22 14:30:42;;;;;;;1.10;0.30;;;;;;;;;;5051815;28;20087;-78
2022/05/22 14:33:11;;;;;;;1.48;0.80;;;;;;;;;;5057717;28;20111;-79
2022/05/22 14:35:38;;;;;;;0.63;0.60;;;;;;;;;;5051495;28;20396;-80
2022/05/22 14:41:06;;;;;;;1.23;0.65;;;;;;;;;;5052558;28;20043;-78
2022/05/22 14:43:34;;;;;;;0.43;0.30;;;;;;;;;;5051443;28;20029;-78
2022/05/22 14:46:00;;;;;;;0.50;0.30;;;;;;;;;;5049223;28;20054;-81
2022/05/22 14:48:47;;;;;;;0.50;0.50;;;;;;;;;;5055598;28;20533;-80
2022/05/22 14:51:35;;;;;;;1.38;0.25;;;;;;;;;;5059888;28;20368;-79
2022/05/22 14:54:18;;;;;;;0.28;0.28;;;;;;;;;;5059162;28;20548;-81
2022/05/22 14:56:48;;;;;;;0.40;0.40;;;;;;;;;;5050168;28;20041;-78
2022/05/22 14:59:15;;;;;;;0.38;0.38;;;;;;;;;;5057355;28;20036;-76
2022/05/22 15:01:44;;;;;;;1.23;0.65;;;;;;;;;;5053656;28;20028;-82
2022/05/22 15:04:13;;;;;;;0.70;0.70;;;;;;;;;;5063494;28;20384;-78
2022/05/22 15:06:48;;;;;;;0.30;0.30;;;;;;;;;;5053509;28;20115;-77
2022/05/22 15:09:29;;;;;;;0.30;0.30;;;;;;;;;;5058553;28;20039;-77
2022/05/22 15:11:55;;;;;;;0.50;0.50;;;;;;;;;;5053742;28;20013;-76
2022/05/22 15:14:27;;;;;;;0.40;0.40;;;;;;;;;;5063174;28;20039;-76
2022/05/22 15:16:55;;;;;;;0.30;0.30;;;;;;;;;;5056878;28;20380;-76
2022/05/22 15:25:27;;;;;;;0.40;0.40;;;;;;;;;;5063398;28;20449;-77
2022/05/22 15:27:58;;;;;;;0.30;0.30;;;;;;;;;;5057188;28;20028;-76
2022/05/22 15:30:32;;;;;;;0.30;0.30;;;;;;;;;;5056795;28;20410;-75
2022/05/22 15:33:21;;;;;;;0.45;0.43;;;;;;;;;;5053493;28;20036;-76